Zhongning, China
Current Conditions -  °F | °C
As of 8:00 AM on Sunday 23 Nov 2014 (Local Time) from ZLLL Reporting Station
Clear Clear  
Wind Chill: 17°   Ceiling: Unl
Heat Index: 23°   Visibility: 6mi
Dew Point: 18°   Wind: 4mph
Humidity: 80%   Direction: 330°NNW
Pressure: 30.21"   Gusts: NA
Location:  37.48°N, 105.67°E
Report Text: ZLLL 230000Z 33002MPS CAVOK M05/M08 Q1023 NOSIG
Loading
Personal Weather Stations






























Interactive Weather Map New forecast layout! Learn more

10-Day Weather Forecast

Advertisements
Track Severe Weather on mobile